Time;durP1;ratioP1;P1;durP2;ratioP2;P2;SDS_P1;SDS_P2;PMS_P1;PMS_P2;Temp;Humidity;BMP_temperature;BMP_pressure;BME280_temperature;BME280_humidity;BME280_pressure;Samples;Min_cycle;Max_cycle;Signal;HPM_P1;HPM_P2
2022/01/20 00:00:16;;;;;;;36.53;17.60;;;0.50;99.90;;;;;;5051207;28;20201;-65
2022/01/20 00:02:43;;;;;;;37.97;18.40;;;0.50;99.90;;;;;;5065130;28;20719;-66
2022/01/20 00:05:26;;;;;;;35.03;18.17;;;0.50;99.90;;;;;;5071090;28;20238;-66
2022/01/20 00:08:08;;;;;;;36.07;18.13;;;0.50;99.90;;;;;;5042635;28;20201;-67
2022/01/20 00:26:51;;;;;;;36.77;18.23;;;0.60;99.90;;;;;;5054781;28;20189;-69
2022/01/20 00:29:25;;;;;;;37.87;18.47;;;0.50;99.90;;;;;;5054688;28;20193;-68
2022/01/20 00:32:08;;;;;;;38.97;18.90;;;0.60;99.90;;;;;;5054603;28;20235;-68
2022/01/20 00:37:19;;;;;;;38.33;18.87;;;0.60;99.90;;;;;;5054303;28;20197;-69
2022/01/20 00:39:47;;;;;;;35.67;18.27;;;0.60;99.90;;;;;;5054525;28;20227;-69
2022/01/20 00:42:15;;;;;;;40.87;20.30;;;0.60;99.90;;;;;;5054518;28;20259;-66
2022/01/20 00:44:42;;;;;;;43.40;20.20;;;0.60;99.90;;;;;;5054268;28;20755;-68
2022/01/20 00:47:09;;;;;;;39.57;20.27;;;0.60;99.90;;;;;;5053708;28;20213;-67
2022/01/20 00:49:36;;;;;;;44.27;20.47;;;0.60;99.90;;;;;;5054113;28;20206;-68
2022/01/20 00:52:04;;;;;;;37.87;19.63;;;0.60;99.90;;;;;;5053964;28;20424;-67
2022/01/20 00:54:32;;;;;;;40.17;19.07;;;0.60;99.90;;;;;;5054243;28;20198;-67
2022/01/20 00:57:00;;;;;;;47.73;20.87;;;0.60;99.90;;;;;;5053599;28;20205;-66
2022/01/20 00:59:29;;;;;;;44.30;21.60;;;0.60;99.90;;;;;;5054113;28;20208;-67
2022/01/20 01:01:56;;;;;;;49.50;21.80;;;0.60;99.90;;;;;;5053663;28;20702;-68
2022/01/20 01:04:25;;;;;;;41.53;20.40;;;0.60;99.90;;;;;;5053752;28;20221;-68
2022/01/20 01:07:11;;;;;;;40.90;19.83;;;0.60;99.90;;;;;;5053295;28;20248;-67
2022/01/20 01:09:39;;;;;;;42.37;20.63;;;0.60;99.90;;;;;;5053590;28;20249;-67
2022/01/20 01:12:14;;;;;;;40.83;19.50;;;0.60;99.90;;;;;;5052711;28;20297;-67
2022/01/20 01:14:45;;;;;;;40.20;19.97;;;0.60;99.90;;;;;;5053663;28;20582;-66
2022/01/20 01:20:12;;;;;;;43.10;20.10;;;0.60;99.90;;;;;;5053170;28;20263;-67
2022/01/20 01:22:39;;;;;;;37.77;20.03;;;0.60;99.90;;;;;;5053826;28;20193;-69
2022/01/20 01:25:06;;;;;;;37.57;18.30;;;0.60;99.90;;;;;;5053130;28;20229;-67
2022/01/20 01:27:38;;;;;;;36.83;18.97;;;0.60;99.90;;;;;;5053391;28;20210;-68
2022/01/20 01:30:14;;;;;;;38.37;19.57;;;0.70;99.90;;;;;;5053307;28;20213;-69
2022/01/20 01:32:48;;;;;;;38.23;20.13;;;0.70;99.90;;;;;;5053534;28;20665;-67
2022/01/20 01:35:15;;;;;;;37.73;18.47;;;0.70;99.90;;;;;;5053477;28;20271;-68
2022/01/20 01:40:29;;;;;;;38.40;19.30;;;0.70;99.90;;;;;;5053275;28;20209;-68
2022/01/20 01:43:01;;;;;;;38.43;18.60;;;0.70;99.90;;;;;;5053071;28;20734;-69
2022/01/20 01:45:32;;;;;;;39.23;19.83;;;0.70;99.90;;;;;;5052960;28;20213;-71
2022/01/20 01:47:59;;;;;;;42.57;20.23;;;0.70;99.90;;;;;;5053223;28;20193;-68
2022/01/20 01:50:27;;;;;;;36.53;19.67;;;0.70;99.90;;;;;;5052944;28;20201;-68
2022/01/20 01:52:56;;;;;;;36.93;20.27;;;0.80;99.90;;;;;;5052766;28;20208;-68
2022/01/20 01:55:24;;;;;;;39.67;20.03;;;0.70;99.90;;;;;;5053112;28;20641;-68
2022/01/20 01:57:51;;;;;;;38.40;19.17;;;0.70;99.90;;;;;;5052565;28;20220;-66
2022/01/20 02:00:21;;;;;;;38.70;19.47;;;0.70;99.90;;;;;;5052192;28;20201;-69
2022/01/20 02:02:48;;;;;;;36.67;18.33;;;0.70;99.90;;;;;;5052714;28;20224;-67
2022/01/20 02:05:17;;;;;;;36.53;19.10;;;0.70;99.90;;;;;;5052790;28;20241;-69
2022/01/20 02:18:58;;;;;;;37.13;18.97;;;0.80;99.90;;;;;;5004419;28;20205;-68
2022/01/20 02:21:26;;;;;;;37.20;19.27;;;0.80;99.90;;;;;;5052417;28;20208;-68
2022/01/20 02:23:53;;;;;;;37.17;18.67;;;0.80;99.90;;;;;;5051840;28;20209;-66
2022/01/20 02:26:20;;;;;;;41.13;19.73;;;0.80;99.90;;;;;;5052498;28;20590;-67
2022/01/20 02:28:47;;;;;;;39.57;19.17;;;0.80;99.90;;;;;;5051517;28;20198;-67
2022/01/20 02:31:14;;;;;;;36.37;18.47;;;0.80;99.90;;;;;;5052155;28;20614;-67
2022/01/20 02:33:41;;;;;;;38.57;19.00;;;0.80;99.90;;;;;;5051830;28;20210;-68
2022/01/20 02:36:12;;;;;;;37.43;18.17;;;0.80;99.90;;;;;;5052358;28;20220;-69
2022/01/20 02:38:44;;;;;;;34.93;18.17;;;0.80;99.90;;;;;;5051761;28;20274;-67
2022/01/20 02:46:40;;;;;;;33.63;17.77;;;0.80;99.90;;;;;;5051388;28;20220;-69
2022/01/20 02:49:08;;;;;;;37.00;18.23;;;0.80;99.90;;;;;;5052201;28;20600;-67
2022/01/20 02:51:35;;;;;;;38.23;19.60;;;0.80;99.90;;;;;;5051880;28;20221;-69
2022/01/20 02:54:04;;;;;;;42.50;20.43;;;0.80;99.90;;;;;;5052045;28;20562;-67
2022/01/20 02:56:31;;;;;;;42.93;20.63;;;0.80;99.90;;;;;;5051538;28;20564;-67
2022/01/20 02:58:57;;;;;;;44.43;21.00;;;0.70;99.90;;;;;;5051805;28;20201;-68
2022/01/20 03:01:24;;;;;;;42.50;20.90;;;0.70;99.90;;;;;;5051227;28;20211;-66
2022/01/20 03:03:51;;;;;;;42.67;20.13;;;0.70;99.90;;;;;;5051624;28;20661;-67
2022/01/20 03:06:18;;;;;;;42.10;20.67;;;0.70;99.90;;;;;;5051662;28;20232;-68
2022/01/20 03:08:44;;;;;;;45.20;20.83;;;0.70;99.90;;;;;;5051297;28;20229;-68
2022/01/20 03:11:13;;;;;;;44.90;21.20;;;0.70;99.90;;;;;;5051135;28;20235;-68
2022/01/20 03:13:40;;;;;;;42.33;20.73;;;0.70;99.90;;;;;;5051233;28;20206;-67
2022/01/20 03:16:07;;;;;;;41.53;20.00;;;0.60;99.90;;;;;;5051590;28;20209;-68
2022/01/20 03:18:33;;;;;;;39.27;20.77;;;0.60;99.90;;;;;;5051322;28;20205;-68
2022/01/20 03:21:00;;;;;;;36.87;19.87;;;0.50;99.90;;;;;;5051081;28;20203;-69
2022/01/20 03:23:27;;;;;;;39.73;20.20;;;0.50;99.90;;;;;;5051715;28;20204;-67
2022/01/20 03:25:54;;;;;;;38.73;20.73;;;0.50;99.90;;;;;;5051044;28;20221;-67
2022/01/20 03:28:22;;;;;;;40.63;21.73;;;0.50;99.90;;;;;;5051724;28;20666;-67
2022/01/20 03:30:49;;;;;;;40.53;20.83;;;0.50;99.90;;;;;;5051175;28;20204;-67
2022/01/20 03:33:16;;;;;;;38.73;20.17;;;0.50;99.90;;;;;;5051704;28;20568;-68
2022/01/20 03:35:42;;;;;;;40.77;19.33;;;0.50;99.90;;;;;;5051223;28;20210;-68
2022/01/20 03:38:10;;;;;;;44.90;20.37;;;0.40;99.90;;;;;;5051229;28;20219;-69
2022/01/20 03:40:37;;;;;;;44.40;20.90;;;0.40;99.90;;;;;;5051057;28;20671;-67
2022/01/20 03:43:04;;;;;;;43.67;21.97;;;0.40;99.90;;;;;;5050496;28;20216;-67
2022/01/20 03:45:32;;;;;;;44.13;22.07;;;0.40;99.90;;;;;;5051169;28;20221;-67
2022/01/20 03:48:07;;;;;;;46.80;21.73;;;0.30;99.90;;;;;;5051297;28;20211;-66
2022/01/20 03:53:18;;;;;;;41.87;21.83;;;0.10;99.90;;;;;;5053067;28;20196;-67
2022/01/20 03:55:45;;;;;;;41.87;21.67;;;0.10;99.90;;;;;;5055074;28;20205;-67
2022/01/20 03:58:12;;;;;;;42.43;20.63;;;0.10;99.90;;;;;;5055267;28;20205;-68
2022/01/20 04:00:43;;;;;;;48.00;23.17;;;0.10;99.90;;;;;;5054940;28;20779;-68
2022/01/20 04:03:09;;;;;;;39.83;20.13;;;0.10;99.90;;;;;;5054596;28;20221;-67
2022/01/20 04:05:41;;;;;;;41.43;20.77;;;0.10;99.90;;;;;;5054799;28;20225;-68
2022/01/20 04:08:08;;;;;;;41.87;20.40;;;0.10;99.90;;;;;;5055193;28;20229;-67
2022/01/20 04:10:34;;;;;;;41.53;20.87;;;0.00;99.90;;;;;;5054356;28;20320;-68
2022/01/20 04:13:01;;;;;;;47.50;22.10;;;0.00;99.90;;;;;;5055084;28;20206;-66
2022/01/20 04:15:37;;;;;;;43.50;21.97;;;0.00;99.90;;;;;;5054575;28;20201;-66
2022/01/20 04:18:06;;;;;;;43.27;21.57;;;-0.10;99.90;;;;;;5054881;28;20189;-66
2022/01/20 04:20:32;;;;;;;42.83;21.00;;;-0.10;99.90;;;;;;5053971;28;20517;-66
2022/01/20 04:22:59;;;;;;;41.50;21.83;;;-0.20;99.90;;;;;;5054789;28;20205;-67
2022/01/20 04:25:26;;;;;;;41.40;20.83;;;-0.20;99.90;;;;;;5054382;28;20233;-66
2022/01/20 04:27:53;;;;;;;42.73;21.07;;;-0.20;99.90;;;;;;5054428;28;20657;-67
2022/01/20 04:30:20;;;;;;;40.77;21.60;;;-0.20;99.90;;;;;;5054163;28;21810;-70
2022/01/20 04:32:47;;;;;;;43.20;20.80;;;-0.30;99.90;;;;;;5054391;28;20210;-67
2022/01/20 04:35:18;;;;;;;43.17;21.00;;;-0.30;99.90;;;;;;5054346;28;20202;-66
2022/01/20 04:37:47;;;;;;;37.47;20.10;;;-0.30;99.90;;;;;;5051729;28;20193;-66
2022/01/20 04:40:14;;;;;;;40.73;19.77;;;-0.30;99.90;;;;;;5054039;28;20251;-67
2022/01/20 04:42:43;;;;;;;44.63;20.20;;;-0.30;99.90;;;;;;5053639;28;20304;-65
2022/01/20 04:45:14;;;;;;;35.20;18.83;;;-0.30;99.90;;;;;;5054318;28;20225;-69
2022/01/20 04:47:46;;;;;;;39.63;18.77;;;-0.30;99.90;;;;;;5054334;28;20662;-66
2022/01/20 04:58:28;;;;;;;34.57;18.23;;;-0.40;99.90;;;;;;5053517;28;20194;-67
2022/01/20 05:00:55;;;;;;;33.60;18.43;;;-0.40;99.90;;;;;;5053830;28;20205;-69
2022/01/20 05:03:24;;;;;;;38.17;18.83;;;-0.30;99.90;;;;;;5053463;28;20208;-66
2022/01/20 05:05:52;;;;;;;35.27;18.37;;;-0.40;99.90;;;;;;5053240;28;20739;-66
2022/01/20 05:08:22;;;;;;;37.20;18.87;;;-0.40;99.90;;;;;;5053068;28;20700;-68
2022/01/20 05:10:50;;;;;;;38.23;18.67;;;-0.40;99.90;;;;;;5053454;28;20248;-66
2022/01/20 05:13:23;;;;;;;32.80;17.87;;;-0.50;99.90;;;;;;5053538;28;20209;-68
2022/01/20 05:15:51;;;;;;;33.37;17.60;;;-0.60;99.90;;;;;;5053758;28;20185;-67
2022/01/20 05:18:18;;;;;;;38.87;18.27;;;-0.60;99.90;;;;;;5053067;28;20213;-66
2022/01/20 05:20:45;;;;;;;36.43;18.30;;;-0.60;99.90;;;;;;5053351;28;20205;-67
2022/01/20 05:23:13;;;;;;;35.50;17.63;;;-0.60;99.90;;;;;;5053767;28;20217;-65
2022/01/20 05:25:40;;;;;;;35.43;17.77;;;-0.60;99.90;;;;;;5053368;28;20221;-67
2022/01/20 05:28:07;;;;;;;33.70;18.00;;;-0.60;99.90;;;;;;5052944;28;20207;-68
2022/01/20 05:30:34;;;;;;;32.03;17.23;;;-0.70;99.90;;;;;;5052995;28;20219;-66
2022/01/20 05:33:00;;;;;;;34.93;18.40;;;-0.70;99.90;;;;;;5053449;28;20216;-67
2022/01/20 05:35:28;;;;;;;35.20;18.17;;;-0.70;99.90;;;;;;5052997;28;20209;-66
2022/01/20 05:37:55;;;;;;;32.63;17.13;;;-0.70;99.90;;;;;;5052893;28;20202;-67
2022/01/20 05:40:23;;;;;;;32.60;17.27;;;-0.70;99.90;;;;;;5053066;28;20565;-67
2022/01/20 05:42:50;;;;;;;31.87;16.17;;;-0.70;99.90;;;;;;5053128;28;20205;-66
2022/01/20 05:45:17;;;;;;;38.30;17.07;;;-0.70;99.90;;;;;;5052106;28;20224;-66
2022/01/20 05:47:46;;;;;;;34.80;17.20;;;-0.80;99.90;;;;;;5052154;28;20212;-66
2022/01/20 05:50:16;;;;;;;34.37;17.40;;;-0.80;99.90;;;;;;5052312;28;20739;-71
2022/01/20 05:52:42;;;;;;;31.73;16.67;;;-0.80;99.90;;;;;;5052812;28;20679;-67
2022/01/20 05:55:12;;;;;;;32.90;16.40;;;-0.80;99.90;;;;;;5052173;28;20199;-67
2022/01/20 05:57:40;;;;;;;32.03;16.73;;;-0.80;99.90;;;;;;5052192;28;20198;-67
2022/01/20 06:00:10;;;;;;;35.97;16.73;;;-0.80;99.90;;;;;;5052429;28;20202;-67
2022/01/20 06:03:36;;;;;;;32.97;17.20;;;-0.90;99.90;;;;;;5051341;28;20209;-67
2022/01/20 06:05:24;;;;;;;27.50;15.87;;;-0.90;99.90;;;;;;5049687;28;20240;-68
2022/01/20 06:07:51;;;;;;;29.70;15.63;;;-1.00;99.90;;;;;;5052020;28;20213;-67
2022/01/20 06:10:18;;;;;;;34.07;17.50;;;-1.00;99.90;;;;;;5052181;28;20237;-67
2022/01/20 06:12:46;;;;;;;32.87;16.63;;;-1.00;99.90;;;;;;5051862;28;20205;-69
2022/01/20 06:15:14;;;;;;;32.93;16.83;;;-1.00;99.90;;;;;;5051038;28;20200;-67
2022/01/20 06:17:41;;;;;;;34.60;16.53;;;-1.00;99.90;;;;;;5052180;28;20197;-71
2022/01/20 06:20:09;;;;;;;33.40;17.60;;;-1.00;99.90;;;;;;5052543;28;20367;-67
2022/01/20 06:22:37;;;;;;;34.03;17.47;;;-1.00;99.90;;;;;;5051264;28;20209;-68
2022/01/20 06:25:05;;;;;;;37.93;17.87;;;-0.90;99.90;;;;;;5052125;28;20193;-69
2022/01/20 06:27:32;;;;;;;41.23;18.07;;;-1.00;99.90;;;;;;5051900;28;20662;-67
2022/01/20 06:30:00;;;;;;;40.87;18.50;;;-1.00;99.90;;;;;;5051876;28;20209;-69
2022/01/20 06:32:27;;;;;;;35.73;17.53;;;-1.00;99.90;;;;;;5051977;28;20201;-69
2022/01/20 06:34:54;;;;;;;39.37;18.70;;;-1.00;99.90;;;;;;5052315;28;20205;-69
2022/01/20 06:37:21;;;;;;;38.93;19.90;;;-0.90;99.90;;;;;;5052077;28;20190;-69
2022/01/20 06:39:47;;;;;;;35.73;17.47;;;-0.90;99.90;;;;;;5052468;28;20559;-67
2022/01/20 06:42:14;;;;;;;38.17;18.23;;;-0.90;99.90;;;;;;5051493;28;20567;-67
2022/01/20 06:44:42;;;;;;;39.10;18.23;;;-0.90;99.90;;;;;;5052247;28;20205;-67
2022/01/20 06:47:11;;;;;;;34.97;17.40;;;-0.90;99.90;;;;;;5051527;28;20225;-67
2022/01/20 06:49:38;;;;;;;36.30;17.70;;;-0.90;99.90;;;;;;5051679;28;20209;-67
2022/01/20 06:52:05;;;;;;;37.17;17.33;;;-0.90;99.90;;;;;;5051385;28;20215;-66
2022/01/20 06:54:32;;;;;;;35.23;17.23;;;-0.90;99.90;;;;;;5051864;28;20221;-69
2022/01/20 06:56:59;;;;;;;35.57;17.13;;;-0.90;99.90;;;;;;5051753;28;20323;-67
2022/01/20 06:59:26;;;;;;;35.43;17.43;;;-0.90;99.90;;;;;;5051947;28;20611;-68
2022/01/20 07:01:53;;;;;;;32.27;16.63;;;-0.90;99.90;;;;;;5051322;28;20338;-67
2022/01/20 07:04:21;;;;;;;30.97;16.63;;;-1.00;99.90;;;;;;5050763;28;20759;-66
2022/01/20 07:06:48;;;;;;;34.83;16.87;;;-1.00;99.90;;;;;;5051896;28;20811;-67
2022/01/20 07:09:15;;;;;;;31.97;16.90;;;-0.90;99.90;;;;;;5051530;28;20201;-69
2022/01/20 07:11:42;;;;;;;32.43;16.00;;;-0.90;99.90;;;;;;5051460;28;20186;-67
2022/01/20 07:14:09;;;;;;;29.53;16.60;;;-0.90;99.90;;;;;;5051015;28;20221;-67
2022/01/20 07:16:36;;;;;;;34.73;16.23;;;-0.90;99.90;;;;;;5051928;28;20201;-68
2022/01/20 07:19:04;;;;;;;32.80;16.63;;;-0.80;99.90;;;;;;5051519;28;20205;-68
2022/01/20 07:21:32;;;;;;;34.57;17.57;;;-0.70;99.90;;;;;;5051804;28;20205;-67
2022/01/20 07:23:59;;;;;;;35.37;17.40;;;-0.70;99.90;;;;;;5050855;28;20205;-66
2022/01/20 07:26:26;;;;;;;34.23;15.90;;;-0.60;99.90;;;;;;5052407;28;20573;-70
2022/01/20 07:28:52;;;;;;;30.93;15.53;;;-0.60;99.90;;;;;;5055775;28;20732;-68
2022/01/20 07:31:22;;;;;;;33.03;16.80;;;-0.60;99.90;;;;;;5055366;28;20205;-68
2022/01/20 07:33:49;;;;;;;26.70;14.87;;;-0.50;99.90;;;;;;5055618;28;20223;-69
2022/01/20 07:36:16;;;;;;;31.73;15.73;;;-0.50;99.90;;;;;;5056091;28;20795;-68
2022/01/20 07:38:45;;;;;;;30.10;15.13;;;-0.40;99.90;;;;;;5055363;28;20208;-68
2022/01/20 07:41:12;;;;;;;31.93;16.70;;;-0.30;99.90;;;;;;5056073;28;20600;-68
2022/01/20 07:43:39;;;;;;;33.07;16.30;;;-0.30;99.90;;;;;;5055497;28;20201;-67
2022/01/20 07:46:06;;;;;;;33.93;15.70;;;-0.20;99.90;;;;;;5055131;28;20233;-67
2022/01/20 07:48:33;;;;;;;35.03;17.30;;;-0.10;99.90;;;;;;5055427;28;20202;-67
2022/01/20 07:50:59;;;;;;;34.30;16.53;;;-0.10;99.90;;;;;;5054988;28;20205;-69
2022/01/20 07:53:26;;;;;;;31.63;15.87;;;0.00;99.90;;;;;;5055661;28;20661;-66
2022/01/20 07:55:54;;;;;;;26.00;14.13;;;0.00;99.90;;;;;;5055188;28;20208;-69
2022/01/20 07:58:21;;;;;;;28.03;14.67;;;0.00;99.90;;;;;;5054781;28;20293;-67
2022/01/20 08:00:48;;;;;;;26.97;13.83;;;0.10;99.90;;;;;;5055455;28;20205;-68
2022/01/20 08:03:15;;;;;;;28.90;14.33;;;0.10;99.90;;;;;;5055010;28;20236;-67
2022/01/20 08:05:42;;;;;;;28.80;15.23;;;0.20;99.90;;;;;;5054768;28;20201;-67
2022/01/20 08:08:08;;;;;;;30.07;15.00;;;0.30;99.90;;;;;;5055176;28;20662;-71
2022/01/20 08:10:35;;;;;;;28.73;13.90;;;0.30;99.90;;;;;;5054892;28;20241;-67
2022/01/20 08:13:04;;;;;;;28.40;14.03;;;0.40;99.90;;;;;;5055382;28;20205;-72
2022/01/20 08:15:31;;;;;;;29.83;13.53;;;0.50;99.90;;;;;;5054244;28;20214;-69
2022/01/20 08:17:58;;;;;;;26.50;13.60;;;0.50;99.90;;;;;;5054473;28;20211;-67
2022/01/20 08:20:25;;;;;;;24.97;14.60;;;0.60;99.90;;;;;;5055253;28;20216;-67
2022/01/20 08:22:51;;;;;;;30.30;13.90;;;0.60;99.90;;;;;;5054897;28;20208;-68
2022/01/20 08:25:20;;;;;;;26.30;13.60;;;0.70;99.90;;;;;;5053825;28;20198;-68
2022/01/20 08:27:50;;;;;;;27.60;13.60;;;0.80;99.90;;;;;;5054609;28;20309;-69
2022/01/20 08:30:20;;;;;;;30.43;13.27;;;0.80;99.90;;;;;;5054422;28;20201;-67
2022/01/20 08:32:48;;;;;;;25.50;13.40;;;0.90;99.90;;;;;;5055183;28;20200;-70
2022/01/20 08:35:16;;;;;;;23.50;12.07;;;0.90;99.90;;;;;;5055182;28;20691;-68
2022/01/20 08:37:45;;;;;;;24.03;12.67;;;1.00;99.90;;;;;;5054419;28;20561;-68
2022/01/20 08:40:14;;;;;;;23.67;12.53;;;1.10;99.90;;;;;;5054065;28;20270;-68
2022/01/20 08:42:42;;;;;;;25.83;13.53;;;1.10;99.90;;;;;;5054846;28;20201;-68
2022/01/20 08:45:10;;;;;;;28.63;14.07;;;1.20;99.90;;;;;;5054278;28;20201;-70
2022/01/20 08:47:38;;;;;;;25.47;13.50;;;1.30;99.90;;;;;;5054754;28;20785;-68
2022/01/20 08:50:07;;;;;;;20.53;12.37;;;1.30;99.90;;;;;;5054278;28;20206;-68
2022/01/20 08:52:34;;;;;;;26.63;12.43;;;1.40;99.90;;;;;;5054591;28;20212;-69
2022/01/20 08:55:01;;;;;;;23.87;12.43;;;1.40;99.90;;;;;;5054095;28;20209;-67
2022/01/20 08:57:28;;;;;;;23.00;12.10;;;1.50;99.90;;;;;;5054583;28;20207;-69
2022/01/20 08:59:56;;;;;;;26.73;12.50;;;1.50;99.90;;;;;;5053893;28;20210;-70
2022/01/20 09:02:24;;;;;;;24.80;13.03;;;1.50;99.90;;;;;;5053868;28;20664;-68
2022/01/20 09:04:52;;;;;;;25.63;13.53;;;1.60;99.90;;;;;;5053988;28;20320;-68
2022/01/20 09:07:19;;;;;;;22.80;13.17;;;1.60;99.90;;;;;;5054068;28;20216;-68
2022/01/20 09:09:48;;;;;;;24.13;13.57;;;1.70;99.90;;;;;;5053183;28;20229;-67
2022/01/20 09:15:27;;;;;;;28.37;14.30;;;1.70;99.90;;;;;;5054170;28;20205;-70
2022/01/20 09:17:52;;;;;;;24.93;12.37;;;1.70;99.90;;;;;;5053787;28;20181;-67
2022/01/20 09:20:20;;;;;;;20.97;11.80;;;1.70;99.90;;;;;;5053859;28;20569;-68
2022/01/20 09:22:48;;;;;;;22.90;11.40;;;1.70;99.90;;;;;;5053910;28;20206;-69
2022/01/20 09:25:15;;;;;;;23.57;12.43;;;1.70;99.90;;;;;;5053997;28;20205;-70
2022/01/20 09:27:43;;;;;;;21.90;12.87;;;1.80;99.90;;;;;;5053219;28;20221;-67
2022/01/20 09:30:17;;;;;;;23.27;12.33;;;1.80;99.90;;;;;;5053780;28;20544;-69
2022/01/20 09:32:46;;;;;;;24.10;12.57;;;1.80;99.90;;;;;;5053234;28;20276;-67
2022/01/20 09:35:13;;;;;;;20.27;12.30;;;1.90;99.90;;;;;;5053744;28;20216;-67
2022/01/20 09:37:42;;;;;;;24.70;12.67;;;1.90;99.90;;;;;;5053550;28;20197;-68
2022/01/20 09:40:10;;;;;;;22.07;11.67;;;1.90;99.90;;;;;;5053270;28;20205;-67
2022/01/20 09:42:37;;;;;;;21.47;12.03;;;2.00;99.90;;;;;;5053324;28;20251;-68
2022/01/20 09:45:04;;;;;;;23.83;11.77;;;2.00;99.90;;;;;;5053248;28;20650;-67
2022/01/20 09:47:31;;;;;;;24.13;12.07;;;2.00;99.90;;;;;;5053431;28;20251;-69
2022/01/20 09:49:58;;;;;;;23.93;12.60;;;2.00;99.90;;;;;;5052149;28;20227;-67
2022/01/20 09:52:27;;;;;;;20.93;11.73;;;2.00;99.90;;;;;;5053169;28;20399;-68
2022/01/20 09:54:56;;;;;;;26.40;12.77;;;2.10;99.90;;;;;;5052550;28;20193;-69
2022/01/20 09:57:23;;;;;;;22.70;12.20;;;2.10;99.90;;;;;;5053444;28;20207;-67
2022/01/20 09:59:50;;;;;;;22.73;12.30;;;2.20;99.90;;;;;;5053002;28;20224;-67
2022/01/20 10:02:19;;;;;;;23.17;12.43;;;2.20;99.90;;;;;;5052430;28;20197;-68
2022/01/20 10:04:46;;;;;;;22.47;11.87;;;2.30;99.90;;;;;;5052784;28;20208;-66
2022/01/20 10:07:15;;;;;;;23.10;12.10;;;2.30;99.90;;;;;;5052962;28;20685;-68
2022/01/20 10:09:45;;;;;;;22.67;11.60;;;2.30;99.90;;;;;;5051730;28;20240;-69
2022/01/20 10:12:15;;;;;;;20.17;12.13;;;2.30;99.90;;;;;;5052619;28;20198;-66
2022/01/20 10:14:44;;;;;;;24.60;11.97;;;2.40;99.90;;;;;;5052619;28;20560;-68
2022/01/20 10:17:16;;;;;;;24.10;11.97;;;2.40;99.90;;;;;;5052910;28;20723;-70
2022/01/20 10:19:43;;;;;;;22.10;11.60;;;2.50;99.90;;;;;;5052342;28;20213;-67
2022/01/20 10:22:15;;;;;;;23.93;11.87;;;2.50;99.90;;;;;;5052964;28;20603;-68
2022/01/20 10:24:42;;;;;;;19.30;11.20;;;2.50;99.90;;;;;;5052502;28;20303;-67
2022/01/20 10:27:10;;;;;;;22.60;11.20;;;2.60;99.90;;;;;;5052638;28;20674;-67
2022/01/20 10:29:39;;;;;;;21.10;11.77;;;2.60;99.90;;;;;;5052267;28;20210;-67
2022/01/20 10:32:07;;;;;;;22.23;11.60;;;2.70;99.90;;;;;;5052685;28;20201;-67
2022/01/20 10:34:36;;;;;;;22.63;12.20;;;2.70;99.90;;;;;;5052386;28;20212;-66
2022/01/20 10:37:06;;;;;;;20.40;11.20;;;2.70;99.90;;;;;;5060432;28;20598;-70
2022/01/20 10:39:35;;;;;;;25.07;13.17;;;2.80;99.90;;;;;;5052430;28;20200;-67
2022/01/20 10:42:04;;;;;;;23.83;12.23;;;2.80;99.90;;;;;;5052164;28;20205;-70
2022/01/20 10:44:43;;;;;;;28.00;13.80;;;2.90;99.90;;;;;;5052358;28;20248;-70
2022/01/20 10:47:13;;;;;;;27.20;13.87;;;2.90;99.90;;;;;;5052585;28;20205;-69
2022/01/20 10:49:40;;;;;;;25.20;13.37;;;3.00;99.90;;;;;;5052301;28;20201;-68
2022/01/20 10:52:09;;;;;;;26.67;13.83;;;3.00;99.90;;;;;;5052007;28;20205;-67
2022/01/20 10:54:38;;;;;;;30.90;14.40;;;3.00;99.90;;;;;;5052788;28;20561;-70
2022/01/20 10:57:07;;;;;;;24.27;14.53;;;3.00;99.90;;;;;;5052033;28;20198;-69
2022/01/20 10:59:35;;;;;;;26.17;14.93;;;3.10;99.90;;;;;;5051111;28;20666;-66
2022/01/20 11:02:06;;;;;;;22.53;13.13;;;3.20;99.90;;;;;;5051574;28;20205;-67
2022/01/20 11:04:34;;;;;;;25.03;12.10;;;3.20;99.90;;;;;;5052218;28;20584;-67
2022/01/20 11:07:04;;;;;;;23.43;11.63;;;3.20;99.90;;;;;;5051523;28;20308;-67
2022/01/20 11:09:34;;;;;;;23.13;11.63;;;3.20;99.90;;;;;;5051878;28;20244;-69
2022/01/20 11:12:03;;;;;;;21.17;11.30;;;3.30;99.90;;;;;;5031947;28;20630;-65
2022/01/20 11:14:31;;;;;;;19.23;10.63;;;3.30;99.90;;;;;;5031616;28;20213;-68
2022/01/20 11:16:59;;;;;;;23.23;11.60;;;3.30;99.90;;;;;;5032327;28;20676;-67
2022/01/20 11:19:31;;;;;;;20.23;11.03;;;3.30;99.90;;;;;;5031200;28;20248;-68
2022/01/20 11:22:07;;;;;;;20.70;11.13;;;3.40;99.90;;;;;;5032248;28;20264;-67
2022/01/20 11:24:34;;;;;;;20.27;10.63;;;3.40;99.90;;;;;;5031796;28;20201;-67
2022/01/20 11:27:02;;;;;;;24.00;11.47;;;3.50;99.90;;;;;;5031652;28;20222;-67
2022/01/20 11:29:41;;;;;;;19.90;10.90;;;3.50;99.90;;;;;;5031884;28;20202;-68
2022/01/20 11:32:19;;;;;;;20.07;10.97;;;3.50;99.90;;;;;;5031722;28;20190;-69
2022/01/20 11:34:59;;;;;;;21.77;11.83;;;3.50;99.90;;;;;;5031482;28;20205;-69
2022/01/20 11:37:26;;;;;;;20.17;10.60;;;3.40;99.90;;;;;;5031583;28;20194;-67
2022/01/20 11:39:54;;;;;;;21.63;11.13;;;3.40;99.90;;;;;;5031605;28;20201;-67
2022/01/20 11:42:24;;;;;;;19.67;10.97;;;3.30;99.90;;;;;;5031883;28;20558;-68
2022/01/20 11:44:51;;;;;;;20.60;11.07;;;3.30;99.90;;;;;;5031333;28;20252;-67
2022/01/20 11:47:18;;;;;;;22.63;11.17;;;3.30;99.90;;;;;;5031739;28;20222;-68
2022/01/20 11:49:46;;;;;;;20.87;11.80;;;3.30;99.90;;;;;;5031382;28;20225;-68
2022/01/20 11:52:25;;;;;;;23.33;12.87;;;3.30;99.90;;;;;;5031576;28;20519;-66
2022/01/20 11:54:52;;;;;;;18.53;11.17;;;3.30;99.90;;;;;;5030743;28;20198;-69
2022/01/20 11:57:27;;;;;;;20.90;11.13;;;3.40;99.90;;;;;;5031432;28;20190;-66
2022/01/20 11:59:58;;;;;;;21.23;11.53;;;3.40;99.90;;;;;;5030911;28;20562;-67
2022/01/20 12:02:27;;;;;;;23.83;11.60;;;3.40;99.90;;;;;;5030880;28;20198;-68
2022/01/20 12:04:54;;;;;;;22.83;11.30;;;3.40;99.90;;;;;;5031026;28;20209;-69
2022/01/20 12:07:28;;;;;;;16.97;10.37;;;3.40;99.90;;;;;;5030588;28;20245;-67
2022/01/20 12:10:09;;;;;;;20.63;10.93;;;3.50;99.90;;;;;;5031228;28;20238;-66
2022/01/20 12:12:38;;;;;;;19.33;10.57;;;3.60;99.90;;;;;;5030847;28;20229;-67
2022/01/20 12:15:11;;;;;;;18.63;11.00;;;3.60;99.90;;;;;;5034293;28;20222;-66
2022/01/20 12:17:41;;;;;;;23.30;10.77;;;3.60;99.90;;;;;;5035022;28;20672;-66
2022/01/20 12:20:10;;;;;;;21.37;10.90;;;3.60;99.90;;;;;;5034740;28;20225;-66
2022/01/20 12:22:41;;;;;;;17.73;10.50;;;3.60;99.90;;;;;;5034759;28;20214;-68
2022/01/20 12:25:14;;;;;;;22.80;10.80;;;3.60;99.90;;;;;;5035181;28;20210;-67
2022/01/20 12:27:42;;;;;;;19.20;10.43;;;3.60;99.90;;;;;;5034884;28;20220;-68
2022/01/20 12:30:17;;;;;;;22.13;10.87;;;3.60;99.90;;;;;;5035107;28;20228;-67
2022/01/20 12:32:44;;;;;;;19.10;10.87;;;3.50;99.90;;;;;;5034777;28;20479;-67
2022/01/20 12:35:11;;;;;;;21.20;11.73;;;3.50;99.90;;;;;;5034829;28;20210;-66
2022/01/20 12:37:40;;;;;;;22.10;11.30;;;3.50;99.90;;;;;;5034754;28;20205;-67
2022/01/20 12:40:17;;;;;;;21.47;11.33;;;3.50;99.90;;;;;;5034910;28;20576;-70
2022/01/20 12:42:44;;;;;;;22.90;11.40;;;3.50;99.90;;;;;;5034738;28;20312;-66
2022/01/20 12:48:12;;;;;;;21.90;11.60;;;3.50;99.90;;;;;;5034651;28;20574;-67
2022/01/20 12:50:39;;;;;;;20.90;11.33;;;3.50;99.90;;;;;;5034684;28;20224;-66
2022/01/20 12:53:07;;;;;;;20.63;11.20;;;3.40;99.90;;;;;;5034621;28;20550;-68
2022/01/20 12:55:34;;;;;;;22.87;12.50;;;3.40;99.90;;;;;;5034495;28;20206;-68
2022/01/20 12:58:01;;;;;;;21.27;11.10;;;3.50;99.90;;;;;;5034662;28;20558;-69
2022/01/20 13:00:28;;;;;;;23.97;11.37;;;3.40;99.90;;;;;;5034310;28;20206;-69
2022/01/20 13:02:55;;;;;;;19.57;11.23;;;3.40;99.90;;;;;;5034572;28;20205;-68
2022/01/20 13:05:23;;;;;;;22.70;11.63;;;3.40;99.90;;;;;;5034125;28;20564;-68
2022/01/20 13:07:52;;;;;;;20.27;11.00;;;3.40;99.90;;;;;;5034354;28;20686;-68
2022/01/20 13:10:22;;;;;;;20.47;11.33;;;3.50;99.90;;;;;;5033896;28;20607;-68
2022/01/20 13:12:51;;;;;;;21.40;11.63;;;3.50;99.90;;;;;;5034276;28;20706;-67
2022/01/20 13:15:24;;;;;;;20.93;11.27;;;3.50;99.90;;;;;;5034250;28;20210;-70
2022/01/20 13:18:02;;;;;;;23.63;11.77;;;3.50;99.90;;;;;;5033969;28;20187;-67
2022/01/20 13:20:31;;;;;;;22.50;11.50;;;3.50;99.90;;;;;;5034070;28;20635;-70
2022/01/20 13:23:01;;;;;;;23.23;11.33;;;3.50;99.90;;;;;;5033794;28;20206;-66
2022/01/20 13:25:32;;;;;;;20.27;11.73;;;3.50;99.90;;;;;;5033452;28;20289;-65
2022/01/20 13:28:01;;;;;;;20.57;11.17;;;3.50;99.90;;;;;;5033903;28;20211;-68
2022/01/20 13:30:29;;;;;;;26.33;11.60;;;3.40;99.90;;;;;;5033657;28;20210;-67
2022/01/20 13:32:57;;;;;;;19.97;11.70;;;3.40;99.90;;;;;;5033730;28;20663;-68
2022/01/20 13:35:25;;;;;;;20.03;11.73;;;3.40;99.90;;;;;;5033672;28;20213;-70
2022/01/20 13:37:59;;;;;;;21.27;11.87;;;3.40;99.90;;;;;;5033760;28;20221;-69